Time,TemperatureF,DewpointF,PressureIn,WindDirection,WindDirectionDegrees,WindSpeedMPH,WindSpeedGustMPH,Humidity,HourlyPrecipIn,Conditions,Clouds,dailyrainin,SoftwareType,DateUTC
2013-02-11 00:00:00,69.5,67.4,29.99,South,180,5.0,5.0,93,0.00,,,0.00,WUHU216HW,2013-02-11 06:00:00,
2013-02-11 00:05:00,69.3,67.2,29.99,South,181,3.0,5.0,93,0.00,,,0.00,WUHU216HW,2013-02-11 06:05:00,
2013-02-11 00:10:00,69.3,67.2,29.99,SSW,203,4.0,5.0,93,0.00,,,0.00,WUHU216HW,2013-02-11 06:10:00,
2013-02-11 00:15:00,69.3,67.5,29.98,South,169,5.0,5.0,94,0.00,,,0.00,WUHU216HW,2013-02-11 06:15:00,
2013-02-11 00:20:00,69.1,67.3,29.98,SW,215,3.0,5.0,94,0.00,,,0.00,WUHU216HW,2013-02-11 06:20:00,
2013-02-11 00:25:00,69.1,67.3,29.98,South,180,5.0,5.0,94,0.00,,,0.00,WUHU216HW,2013-02-11 06:25:00,
2013-02-11 00:30:00,69.1,67.3,29.98,South,180,5.0,5.0,94,0.00,,,0.00,WUHU216HW,2013-02-11 06:30:00,
2013-02-11 00:35:00,69.1,67.3,29.98,SSW,203,3.0,5.0,94,0.00,,,0.00,WUHU216HW,2013-02-11 06:35:00,
2013-02-11 00:40:00,69.1,67.3,29.98,South,191,3.0,3.0,94,0.00,,,0.00,WUHU216HW,2013-02-11 06:40:00,
2013-02-11 00:45:00,69.1,67.3,29.98,SSE,158,6.0,6.0,94,0.00,,,0.00,WUHU216HW,2013-02-11 06:45:00,
2013-02-11 00:50:00,69.1,67.3,29.98,SSW,203,3.0,6.0,94,0.00,,,0.00,WUHU216HW,2013-02-11 06:50:00,
2013-02-11 00:55:00,68.9,67.1,29.98,South,180,5.0,5.0,94,0.00,,,0.00,WUHU216HW,2013-02-11 06:55:00,
2013-02-11 01:00:00,68.9,67.1,29.98,SSW,203,4.0,5.0,94,0.00,,,0.00,WUHU216HW,2013-02-11 07:00:00,
2013-02-11 01:05:00,68.9,67.1,29.98,SSW,203,3.0,4.0,94,0.00,,,0.00,WUHU216HW,2013-02-11 07:05:00,
2013-02-11 01:10:00,68.9,67.1,29.98,SSE,165,3.0,4.0,94,0.00,,,0.00,WUHU216HW,2013-02-11 07:10:00,
2013-02-11 01:15:00,68.9,67.1,29.98,South,180,3.0,5.0,94,0.00,,,0.00,WUHU216HW,2013-02-11 07:15:00,
2013-02-11 01:20:00,68.9,67.1,29.98,South,180,5.0,5.0,94,0.00,,,0.00,WUHU216HW,2013-02-11 07:20:00,
2013-02-11 01:25:00,68.8,67.0,29.98,SW,225,2.0,5.0,94,0.00,,,0.00,WUHU216HW,2013-02-11 07:25:00,
2013-02-11 01:30:00,68.8,67.0,29.98,SSW,194,2.0,3.0,94,0.00,,,0.00,WUHU216HW,2013-02-11 07:30:00,
2013-02-11 01:35:00,68.8,67.0,29.98,SSW,203,2.0,4.0,94,0.00,,,0.00,WUHU216HW,2013-02-11 07:35:00,
2013-02-11 01:40:00,68.8,67.0,29.98,SSW,204,2.0,4.0,94,0.00,,,0.00,WUHU216HW,2013-02-11 07:40:00,
2013-02-11 01:46:00,68.8,67.0,29.98,SW,214,2.0,4.0,94,0.00,,,0.00,WUHU216HW,2013-02-11 07:46:00,
2013-02-11 01:51:00,68.8,67.0,29.98,SSW,203,4.0,4.0,94,0.00,,,0.00,WUHU216HW,2013-02-11 07:51:00,
2013-02-11 01:56:00,68.6,66.8,29.98,SW,216,2.0,4.0,94,0.00,,,0.00,WUHU216HW,2013-02-11 07:56:00,
2013-02-11 02:01:00,68.6,66.8,29.98,SW,218,2.0,3.0,94,0.00,,,0.00,WUHU216HW,2013-02-11 08:01:00,
2013-02-11 02:06:00,68.4,66.6,29.98,South,180,1.0,3.0,94,0.00,,,0.00,WUHU216HW,2013-02-11 08:06:00,
2013-02-11 02:11:00,68.4,66.6,29.98,SW,225,3.0,4.0,94,0.00,,,0.00,WUHU216HW,2013-02-11 08:11:00,
2013-02-11 02:16:00,68.4,66.6,29.98,SSW,203,2.0,4.0,94,0.00,,,0.00,WUHU216HW,2013-02-11 08:16:00,
2013-02-11 02:21:00,68.4,66.6,29.98,SSW,210,3.0,3.0,94,0.00,,,0.00,WUHU216HW,2013-02-11 08:21:00,
2013-02-11 02:26:00,68.4,66.6,29.98,South,180,2.0,3.0,94,0.00,,,0.00,WUHU216HW,2013-02-11 08:26:00,
2013-02-11 02:31:00,68.4,66.6,29.98,South,180,2.0,3.0,94,0.00,,,0.00,WUHU216HW,2013-02-11 08:31:00,
2013-02-11 02:36:00,68.2,66.4,29.98,SW,225,3.0,3.0,94,0.00,,,0.00,WUHU216HW,2013-02-11 08:36:00,
2013-02-11 02:41:00,68.4,66.9,29.97,SSW,192,4.0,4.0,95,0.00,,,0.00,WUHU216HW,2013-02-11 08:41:00,
2013-02-11 02:46:00,68.4,66.9,29.97,SSE,158,3.0,4.0,95,0.00,,,0.00,WUHU216HW,2013-02-11 08:46:00,
2013-02-11 02:51:00,68.6,67.1,29.97,SSW,203,4.0,4.0,95,0.00,,,0.00,WUHU216HW,2013-02-11 08:51:00,
2013-02-11 02:56:00,68.8,67.3,29.98,SSW,203,3.0,4.0,95,0.00,,,0.00,WUHU216HW,2013-02-11 08:56:00,
2013-02-11 03:01:00,68.8,67.3,29.98,SSE,147,3.0,4.0,95,0.00,,,0.00,WUHU216HW,2013-02-11 09:01:00,
2013-02-11 03:06:00,68.8,67.3,29.98,SSW,203,4.0,4.0,95,0.00,,,0.00,WUHU216HW,2013-02-11 09:06:00,
2013-02-11 03:11:00,68.9,67.4,29.97,SSW,199,4.0,5.0,95,0.00,,,0.00,WUHU216HW,2013-02-11 09:11:00,
2013-02-11 03:16:00,68.9,67.4,29.98,SSW,198,2.0,5.0,95,0.00,,,0.00,WUHU216HW,2013-02-11 09:16:00,
2013-02-11 03:21:00,69.1,67.6,29.98,SSW,192,2.0,4.0,95,0.00,,,0.00,WUHU216HW,2013-02-11 09:21:00,
2013-02-11 03:26:00,69.1,67.6,29.97,SSE,166,3.0,5.0,95,0.00,,,0.00,WUHU216HW,2013-02-11 09:26:00,
2013-02-11 03:31:00,69.1,67.6,29.97,South,180,4.0,5.0,95,0.00,,,0.00,WUHU216HW,2013-02-11 09:31:00,
2013-02-11 03:36:00,69.1,67.6,29.96,South,183,4.0,5.0,95,0.00,,,0.00,WUHU216HW,2013-02-11 09:36:00,
2013-02-11 03:41:00,68.9,67.4,29.96,South,180,4.0,5.0,95,0.00,,,0.00,WUHU216HW,2013-02-11 09:41:00,
2013-02-11 03:46:00,68.9,67.4,29.96,SSE,158,4.0,5.0,95,0.00,,,0.00,WUHU216HW,2013-02-11 09:46:00,
2013-02-11 03:51:00,68.9,67.4,29.96,SSW,203,5.0,5.0,95,0.00,,,0.00,WUHU216HW,2013-02-11 09:51:00,
2013-02-11 03:56:00,68.9,67.4,29.96,SSW,203,5.0,5.0,95,0.00,,,0.00,WUHU216HW,2013-02-11 09:56:00,
2013-02-11 04:01:00,68.8,67.3,29.96,SSW,203,5.0,5.0,95,0.00,,,0.00,WUHU216HW,2013-02-11 10:01:00,
2013-02-11 04:06:00,68.8,67.3,29.95,SSW,203,4.0,5.0,95,0.00,,,0.00,WUHU216HW,2013-02-11 10:06:00,
2013-02-11 04:11:00,68.6,67.1,29.95,South,180,6.0,6.0,95,0.00,,,0.00,WUHU216HW,2013-02-11 10:11:00,
2013-02-11 04:16:00,68.6,67.1,29.95,SSE,167,3.0,6.0,95,0.00,,,0.00,WUHU216HW,2013-02-11 10:16:00,
2013-02-11 04:21:00,68.4,66.9,29.95,SSW,203,5.0,5.0,95,0.00,,,0.00,WUHU216HW,2013-02-11 10:21:00,
2013-02-11 04:26:00,68.4,66.9,29.95,South,189,3.0,5.0,95,0.00,,,0.00,WUHU216HW,2013-02-11 10:26:00,
2013-02-11 04:31:00,68.6,67.1,29.96,SSE,168,5.0,5.0,95,0.00,,,0.00,WUHU216HW,2013-02-11 10:31:00,
2013-02-11 04:36:00,68.4,66.9,29.95,SSW,203,5.0,6.0,95,0.00,,,0.00,WUHU216HW,2013-02-11 10:36:00,
2013-02-11 04:41:00,68.4,66.9,29.96,South,180,3.0,6.0,95,0.00,,,0.00,WUHU216HW,2013-02-11 10:41:00,
2013-02-11 04:46:00,68.4,66.9,29.96,SW,215,3.0,4.0,95,0.00,,,0.00,WUHU216HW,2013-02-11 10:46:00,
2013-02-11 04:51:00,68.4,66.9,29.96,SW,225,6.0,6.0,95,0.00,,,0.00,WUHU216HW,2013-02-11 10:51:00,
2013-02-11 04:56:00,68.6,67.1,29.96,SW,214,4.0,6.0,95,0.00,,,0.00,WUHU216HW,2013-02-11 10:56:00,
2013-02-11 05:01:00,68.6,67.1,29.96,SSW,195,4.0,5.0,95,0.00,,,0.00,WUHU216HW,2013-02-11 11:01:00,
2013-02-11 05:06:00,68.6,67.1,29.97,SW,225,6.0,6.0,95,0.00,,,0.00,WUHU216HW,2013-02-11 11:06:00,
2013-02-11 05:11:00,68.6,67.1,29.97,South,180,5.0,6.0,95,0.00,,,0.00,WUHU216HW,2013-02-11 11:11:00,
2013-02-11 05:16:00,68.6,67.1,29.97,SSW,203,3.0,5.0,95,0.00,,,0.00,WUHU216HW,2013-02-11 11:16:00,
2013-02-11 05:21:00,68.6,67.1,29.97,South,180,5.0,5.0,95,0.00,,,0.00,WUHU216HW,2013-02-11 11:21:00,
2013-02-11 05:26:00,68.6,67.1,29.97,SW,224,5.0,5.0,95,0.00,,,0.00,WUHU216HW,2013-02-11 11:26:00,
2013-02-11 05:31:00,68.4,66.9,29.98,SSW,192,3.0,5.0,95,0.00,,,0.00,WUHU216HW,2013-02-11 11:31:00,
2013-02-11 05:36:00,68.4,66.9,29.98,SW,225,3.0,5.0,95,0.00,,,0.00,WUHU216HW,2013-02-11 11:36:00,
2013-02-11 05:41:00,68.4,66.9,29.98,SSW,203,2.0,4.0,95,0.00,,,0.00,WUHU216HW,2013-02-11 11:41:00,
2013-02-11 05:46:00,68.4,66.9,29.99,WSW,248,1.0,4.0,95,0.00,,,0.00,WUHU216HW,2013-02-11 11:46:00,
2013-02-11 05:51:00,68.6,67.1,29.99,West,270,3.0,6.0,95,0.00,,,0.00,WUHU216HW,2013-02-11 11:51:00,
2013-02-11 05:56:00,68.8,67.3,29.99,SW,225,1.0,6.0,95,0.00,,,0.00,WUHU216HW,2013-02-11 11:56:00,
2013-02-11 06:01:00,68.8,67.3,30.00,WSW,248,3.0,3.0,95,0.00,,,0.00,WUHU216HW,2013-02-11 12:01:00,
2013-02-11 06:06:00,68.8,67.3,30.00,WSW,248,3.0,5.0,95,0.00,,,0.00,WUHU216HW,2013-02-11 12:06:00,
2013-02-11 06:11:00,68.9,67.4,30.00,West,270,2.0,5.0,95,0.00,,,0.00,WUHU216HW,2013-02-11 12:11:00,
2013-02-11 06:16:00,68.9,67.4,30.00,West,259,2.0,3.0,95,0.00,,,0.00,WUHU216HW,2013-02-11 12:16:00,
2013-02-11 06:22:00,68.9,67.4,30.01,WSW,248,1.0,3.0,95,0.00,,,0.00,WUHU216HW,2013-02-11 12:22:00,
2013-02-11 06:27:00,68.9,67.4,30.01,WSW,257,1.0,2.0,95,0.00,,,0.00,WUHU216HW,2013-02-11 12:27:00,
2013-02-11 06:32:00,68.9,67.4,30.01,West,270,3.0,3.0,95,0.00,,,0.00,WUHU216HW,2013-02-11 12:32:00,
2013-02-11 06:37:00,68.9,67.4,30.01,West,270,1.0,3.0,95,0.00,,,0.00,WUHU216HW,2013-02-11 12:37:00,
2013-02-11 06:42:00,68.9,67.4,30.02,WSW,257,1.0,2.0,95,0.00,,,0.00,WUHU216HW,2013-02-11 12:42:00,
2013-02-11 06:47:00,68.9,67.4,30.02,West,270,2.0,2.0,95,0.00,,,0.00,WUHU216HW,2013-02-11 12:47:00,
2013-02-11 06:53:00,68.9,67.7,30.02,West,279,2.0,4.0,96,0.00,,,0.00,WUHU216HW,2013-02-11 12:53:00,
2013-02-11 06:58:00,68.9,67.4,30.02,NW,305,3.0,4.0,95,0.00,,,0.00,WUHU216HW,2013-02-11 12:58:00,
2013-02-11 07:03:00,68.9,67.7,30.02,North,354,1.0,3.0,96,0.00,,,0.00,WUHU216HW,2013-02-11 13:03:00,
2013-02-11 07:08:00,68.9,67.7,30.02,NNW,338,3.0,3.0,96,0.00,,,0.00,WUHU216HW,2013-02-11 13:08:00,
2013-02-11 07:13:00,68.8,67.3,30.03,ENE,68,2.0,3.0,95,0.00,,,0.00,WUHU216HW,2013-02-11 13:13:00,
2013-02-11 07:18:00,68.4,67.2,30.02,NNW,330,3.0,3.0,96,0.00,,,0.00,WUHU216HW,2013-02-11 13:18:00,
2013-02-11 07:23:00,68.4,67.2,30.03,NNW,338,1.0,3.0,96,0.00,,,0.00,WUHU216HW,2013-02-11 13:23:00,
2013-02-11 07:28:00,68.4,67.2,30.03,WNW,296,1.0,2.0,96,0.00,,,0.00,WUHU216HW,2013-02-11 13:28:00,
2013-02-11 07:33:00,68.6,67.4,30.03,North,0,1.0,2.0,96,0.00,,,0.00,WUHU216HW,2013-02-11 13:33:00,
2013-02-11 07:38:00,68.4,67.2,30.04,North,11,2.0,5.0,96,0.00,,,0.00,WUHU216HW,2013-02-11 13:38:00,
2013-02-11 07:43:00,66.1,64.0,30.04,North,0,4.0,5.0,93,0.00,,,0.00,WUHU216HW,2013-02-11 13:43:00,
2013-02-11 07:48:00,64.4,61.7,30.04,NW,326,7.0,8.0,91,0.00,,,0.00,WUHU216HW,2013-02-11 13:48:00,
2013-02-11 07:53:00,63.7,60.7,30.04,NNW,348,8.0,8.0,90,0.00,,,0.00,WUHU216HW,2013-02-11 13:53:00,
2013-02-11 07:58:00,63.4,60.4,30.05,North,352,5.0,10.0,90,0.00,,,0.00,WUHU216HW,2013-02-11 13:58:00,
2013-02-11 08:03:00,63.2,59.9,30.05,North,11,7.0,11.0,89,0.00,,,0.00,WUHU216HW,2013-02-11 14:03:00,
2013-02-11 08:08:00,63.0,59.7,30.05,North,354,5.0,11.0,89,0.00,,,0.00,WUHU216HW,2013-02-11 14:08:00,
2013-02-11 08:13:00,63.0,59.7,30.05,NNE,23,7.0,8.0,89,0.00,,,0.00,WUHU216HW,2013-02-11 14:13:00,
2013-02-11 08:18:00,63.0,59.4,30.05,NNE,27,4.0,9.0,88,0.00,,,0.00,WUHU216HW,2013-02-11 14:18:00,
2013-02-11 08:23:00,62.8,58.6,30.05,NE,45,9.0,11.0,86,0.00,,,0.00,WUHU216HW,2013-02-11 14:23:00,
2013-02-11 08:28:00,62.6,58.7,30.06,NE,45,10.0,11.0,87,0.00,,,0.00,WUHU216HW,2013-02-11 14:28:00,
2013-02-11 08:33:00,62.6,58.4,30.06,North,10,6.0,10.0,86,0.00,,,0.00,WUHU216HW,2013-02-11 14:33:00,
2013-02-11 08:38:00,62.6,58.0,30.06,North,0,11.0,11.0,85,0.00,,,0.00,WUHU216HW,2013-02-11 14:38:00,
2013-02-11 08:43:00,62.3,58.1,30.06,ENE,68,10.0,11.0,86,0.00,,,0.00,WUHU216HW,2013-02-11 14:43:00,
2013-02-11 08:49:00,62.1,58.2,30.07,NE,37,10.0,12.0,87,0.00,,,0.00,WUHU216HW,2013-02-11 14:49:00,
2013-02-11 08:53:00,61.9,58.0,30.07,NE,45,9.0,12.0,87,0.00,,,0.00,WUHU216HW,2013-02-11 14:53:00,
2013-02-11 08:58:00,61.9,58.0,30.07,NNE,32,6.0,12.0,87,0.00,,,0.00,WUHU216HW,2013-02-11 14:58:00,
2013-02-11 09:03:00,62.1,58.5,30.07,NNE,23,11.0,12.0,88,0.00,,,0.00,WUHU216HW,2013-02-11 15:03:00,
2013-02-11 09:08:00,61.9,58.3,30.08,NNE,23,10.0,12.0,88,0.02,,,0.02,WUHU216HW,2013-02-11 15:08:00,
2013-02-11 09:13:00,62.1,58.5,30.07,North,350,5.0,10.0,88,0.02,,,0.02,WUHU216HW,2013-02-11 15:13:00,
2013-02-11 09:18:00,62.3,58.7,30.08,NNE,23,9.0,9.0,88,0.02,,,0.02,WUHU216HW,2013-02-11 15:18:00,
2013-02-11 09:23:00,62.5,58.9,30.08,NNE,30,6.0,9.0,88,0.02,,,0.02,WUHU216HW,2013-02-11 15:23:00,
2013-02-11 09:28:00,62.6,58.7,30.08,NNE,23,9.0,9.0,87,0.02,,,0.02,WUHU216HW,2013-02-11 15:28:00,
2013-02-11 09:33:00,62.6,58.7,30.07,North,0,8.0,9.0,87,0.02,,,0.02,WUHU216HW,2013-02-11 15:33:00,
2013-02-11 09:38:00,62.8,58.9,30.07,NNE,23,9.0,12.0,87,0.02,,,0.02,WUHU216HW,2013-02-11 15:38:00,
2013-02-11 09:43:00,62.8,58.9,30.07,ENE,68,9.0,12.0,87,0.02,,,0.02,WUHU216HW,2013-02-11 15:43:00,
2013-02-11 09:48:00,63.0,59.1,30.07,NNE,16,6.0,9.0,87,0.02,,,0.02,WUHU216HW,2013-02-11 15:48:00,
2013-02-11 09:53:00,63.0,59.1,30.07,North,0,4.0,9.0,87,0.02,,,0.02,WUHU216HW,2013-02-11 15:53:00,
2013-02-11 09:58:00,63.2,59.3,30.07,NNE,29,6.0,7.0,87,0.02,,,0.02,WUHU216HW,2013-02-11 15:58:00,
2013-02-11 10:03:00,63.0,59.1,30.07,NNE,23,4.0,7.0,87,0.00,,,0.02,WUHU216HW,2013-02-11 16:03:00,
2013-02-11 10:08:00,63.0,59.1,30.06,North,0,6.0,7.0,87,0.00,,,0.02,WUHU216HW,2013-02-11 16:08:00,
2013-02-11 10:13:00,62.8,58.9,30.07,NE,45,8.0,8.0,87,0.00,,,0.02,WUHU216HW,2013-02-11 16:13:00,
2013-02-11 10:18:00,62.8,58.9,30.07,NNW,338,8.0,8.0,87,0.00,,,0.02,WUHU216HW,2013-02-11 16:18:00,
2013-02-11 10:23:00,62.6,58.7,30.07,North,7,8.0,9.0,87,0.00,,,0.02,WUHU216HW,2013-02-11 16:23:00,
2013-02-11 10:28:00,62.5,58.6,30.07,North,0,6.0,9.0,87,0.00,,,0.02,WUHU216HW,2013-02-11 16:28:00,
2013-02-11 10:33:00,62.3,58.7,30.09,NNE,31,6.0,9.0,88,0.02,,,0.04,WUHU216HW,2013-02-11 16:33:00,
2013-02-11 10:38:00,61.9,58.3,30.10,NNE,23,8.0,8.0,88,0.07,,,0.09,WUHU216HW,2013-02-11 16:38:00,
2013-02-11 10:43:00,61.6,58.3,30.10,NNE,23,9.0,9.0,89,0.17,,,0.19,WUHU216HW,2013-02-11 16:43:00,
2013-02-11 10:48:00,61.6,58.6,30.08,NNE,23,7.0,9.0,90,0.19,,,0.21,WUHU216HW,2013-02-11 16:48:00,
2013-02-11 10:53:00,61.2,58.2,30.08,North,11,6.0,7.0,90,0.20,,,0.22,WUHU216HW,2013-02-11 16:53:00,
2013-02-11 10:59:00,61.2,58.2,30.09,NE,45,9.0,9.0,90,0.21,,,0.23,WUHU216HW,2013-02-11 16:59:00,
2013-02-11 11:03:00,61.0,58.3,30.08,NNW,347,7.0,11.0,91,0.21,,,0.23,WUHU216HW,2013-02-11 17:03:00,
2013-02-11 11:08:00,61.0,58.3,30.09,NNE,23,5.0,11.0,91,0.21,,,0.23,WUHU216HW,2013-02-11 17:08:00,
2013-02-11 11:13:00,61.0,58.3,30.07,NNE,21,9.0,11.0,91,0.24,,,0.26,WUHU216HW,2013-02-11 17:13:00,
2013-02-11 11:18:00,61.2,58.5,30.07,NNE,23,11.0,11.0,91,0.24,,,0.26,WUHU216HW,2013-02-11 17:18:00,
2013-02-11 11:23:00,61.2,58.2,30.08,NE,45,8.0,11.0,90,0.24,,,0.26,WUHU216HW,2013-02-11 17:23:00,
2013-02-11 11:29:00,61.2,58.2,30.09,ENE,68,8.0,9.0,90,0.22,,,0.26,WUHU216HW,2013-02-11 17:29:00,
2013-02-11 11:34:00,61.0,57.7,30.09,NE,36,6.0,9.0,89,0.20,,,0.26,WUHU216HW,2013-02-11 17:34:00,
2013-02-11 11:39:00,61.2,58.2,30.08,East,79,6.0,10.0,90,0.09,,,0.26,WUHU216HW,2013-02-11 17:39:00,
2013-02-11 11:44:00,61.2,58.2,30.08,ENE,68,10.0,11.0,90,0.05,,,0.26,WUHU216HW,2013-02-11 17:44:00,
2013-02-11 11:49:00,61.2,57.9,30.08,North,351,2.0,11.0,89,0.04,,,0.26,WUHU216HW,2013-02-11 17:49:00,
2013-02-11 11:54:00,60.8,57.2,30.08,NNE,30,6.0,9.0,88,0.03,,,0.26,WUHU216HW,2013-02-11 17:54:00,
2013-02-11 11:59:00,60.8,56.9,30.08,NNE,23,7.0,8.0,87,0.03,,,0.26,WUHU216HW,2013-02-11 17:59:00,
2013-02-11 12:04:00,60.8,56.9,30.07,ENE,68,6.0,11.0,87,0.03,,,0.26,WUHU216HW,2013-02-11 18:04:00,
2013-02-11 12:09:00,60.8,56.9,30.07,NNE,23,6.0,11.0,87,0.01,,,0.26,WUHU216HW,2013-02-11 18:09:00,
2013-02-11 12:14:00,60.8,56.9,30.07,North,0,4.0,9.0,87,0.00,,,0.26,WUHU216HW,2013-02-11 18:14:00,
2013-02-11 12:19:00,61.0,57.1,30.07,ESE,113,11.0,11.0,87,0.00,,,0.26,WUHU216HW,2013-02-11 18:19:00,
2013-02-11 12:25:00,60.8,56.9,30.06,North,0,5.0,11.0,87,0.00,,,0.26,WUHU216HW,2013-02-11 18:25:00,
2013-02-11 12:30:00,61.0,56.8,30.06,NNE,23,5.0,8.0,86,0.00,,,0.26,WUHU216HW,2013-02-11 18:30:00,
2013-02-11 12:35:00,60.8,56.6,30.07,NNE,23,5.0,9.0,86,0.00,,,0.26,WUHU216HW,2013-02-11 18:35:00,
2013-02-11 12:40:00,61.0,56.8,30.06,ENE,58,7.0,9.0,86,0.00,,,0.26,WUHU216HW,2013-02-11 18:40:00,
2013-02-11 12:45:00,60.8,56.6,30.06,East,86,4.0,8.0,86,0.00,,,0.26,WUHU216HW,2013-02-11 18:45:00,
2013-02-11 12:50:00,60.8,56.9,30.06,NE,45,4.0,7.0,87,0.00,,,0.26,WUHU216HW,2013-02-11 18:50:00,
2013-02-11 12:55:00,60.7,56.2,30.06,NE,45,6.0,7.0,85,0.00,,,0.26,WUHU216HW,2013-02-11 18:55:00,
2013-02-11 13:00:00,60.5,56.0,30.06,NNE,29,8.0,10.0,85,0.00,,,0.26,WUHU216HW,2013-02-11 19:00:00,
2013-02-11 13:05:00,60.5,56.0,30.06,NE,37,5.0,10.0,85,0.00,,,0.26,WUHU216HW,2013-02-11 19:05:00,
2013-02-11 13:10:00,60.5,56.0,30.05,NNE,23,10.0,10.0,85,0.00,,,0.26,WUHU216HW,2013-02-11 19:10:00,
2013-02-11 13:15:00,60.5,56.0,30.05,ENE,68,7.0,10.0,85,0.00,,,0.26,WUHU216HW,2013-02-11 19:15:00,
2013-02-11 13:20:00,60.3,56.1,30.05,NNE,28,3.0,7.0,86,0.00,,,0.26,WUHU216HW,2013-02-11 19:20:00,
2013-02-11 13:25:00,60.3,56.1,30.04,ESE,113,9.0,9.0,86,0.00,,,0.26,WUHU216HW,2013-02-11 19:25:00,
2013-02-11 13:30:00,60.5,56.3,30.04,ESE,113,8.0,9.0,86,0.00,,,0.26,WUHU216HW,2013-02-11 19:30:00,
2013-02-11 13:35:00,60.3,56.4,30.05,NNE,15,5.0,8.0,87,0.00,,,0.26,WUHU216HW,2013-02-11 19:35:00,
2013-02-11 13:40:00,60.3,56.1,30.05,NE,54,6.0,8.0,86,0.00,,,0.26,WUHU216HW,2013-02-11 19:40:00,
2013-02-11 13:45:00,60.3,56.1,30.05,NE,56,5.0,8.0,86,0.00,,,0.26,WUHU216HW,2013-02-11 19:45:00,
2013-02-11 13:50:00,60.3,56.4,30.05,NNE,32,9.0,11.0,87,0.00,,,0.26,WUHU216HW,2013-02-11 19:50:00,
2013-02-11 13:55:00,60.1,55.9,30.05,NE,43,6.0,11.0,86,0.00,,,0.26,WUHU216HW,2013-02-11 19:55:00,
2013-02-11 14:00:00,60.1,55.9,30.04,NE,36,3.0,7.0,86,0.00,,,0.26,WUHU216HW,2013-02-11 20:00:00,
2013-02-11 14:05:00,60.1,56.2,30.03,NE,51,7.0,9.0,87,0.00,,,0.26,WUHU216HW,2013-02-11 20:05:00,
2013-02-11 14:10:00,60.1,56.2,30.02,ENE,65,7.0,9.0,87,0.00,,,0.26,WUHU216HW,2013-02-11 20:10:00,
2013-02-11 14:15:00,60.3,56.4,30.02,NE,48,4.0,9.0,87,0.01,,,0.27,WUHU216HW,2013-02-11 20:15:00,
2013-02-11 14:20:00,60.3,56.4,30.03,North,0,3.0,6.0,87,0.01,,,0.27,WUHU216HW,2013-02-11 20:20:00,
2013-02-11 14:25:00,60.3,56.4,30.04,SW,225,0.0,3.0,87,0.01,,,0.27,WUHU216HW,2013-02-11 20:25:00,
2013-02-11 14:30:00,60.5,56.6,30.03,NE,45,5.0,6.0,87,0.01,,,0.27,WUHU216HW,2013-02-11 20:30:00,
2013-02-11 14:35:00,60.5,56.6,30.02,NNE,32,7.0,8.0,87,0.01,,,0.27,WUHU216HW,2013-02-11 20:35:00,
2013-02-11 14:40:00,60.5,56.3,30.02,NNE,22,5.0,10.0,86,0.01,,,0.27,WUHU216HW,2013-02-11 20:40:00,
2013-02-11 14:45:00,60.5,56.6,30.02,East,81,7.0,10.0,87,0.01,,,0.27,WUHU216HW,2013-02-11 20:45:00,
2013-02-11 14:50:00,60.5,56.6,30.02,ENE,68,8.0,9.0,87,0.01,,,0.27,WUHU216HW,2013-02-11 20:50:00,
2013-02-11 14:55:00,60.3,56.1,30.02,East,90,8.0,8.0,86,0.01,,,0.27,WUHU216HW,2013-02-11 20:55:00,
2013-02-11 15:00:00,60.5,56.6,30.01,ENE,68,8.0,8.0,87,0.01,,,0.27,WUHU216HW,2013-02-11 21:00:00,
2013-02-11 15:05:00,60.5,56.6,30.00,ENE,76,6.0,9.0,87,0.01,,,0.27,WUHU216HW,2013-02-11 21:05:00,
2013-02-11 15:10:00,60.7,56.8,30.00,NE,38,3.0,9.0,87,0.01,,,0.27,WUHU216HW,2013-02-11 21:10:00,
2013-02-11 15:15:00,60.7,56.8,30.00,NE,45,8.0,8.0,87,0.00,,,0.27,WUHU216HW,2013-02-11 21:15:00,
2013-02-11 15:20:00,60.7,56.8,30.00,East,81,3.0,8.0,87,0.00,,,0.27,WUHU216HW,2013-02-11 21:20:00,
2013-02-11 15:25:00,60.7,56.8,30.01,NE,42,4.0,9.0,87,0.00,,,0.27,WUHU216HW,2013-02-11 21:25:00,
2013-02-11 15:30:00,60.8,56.9,30.01,ESE,113,3.0,9.0,87,0.00,,,0.27,WUHU216HW,2013-02-11 21:30:00,
2013-02-11 15:35:00,60.8,56.9,30.00,ENE,68,4.0,4.0,87,0.00,,,0.27,WUHU216HW,2013-02-11 21:35:00,
2013-02-11 15:40:00,61.0,57.1,30.00,ENE,68,6.0,6.0,87,0.00,,,0.27,WUHU216HW,2013-02-11 21:40:00,
2013-02-11 15:45:00,60.8,56.9,30.00,ENE,68,3.0,6.0,87,0.00,,,0.27,WUHU216HW,2013-02-11 21:45:00,
2013-02-11 15:50:00,60.8,57.2,30.00,ESE,102,4.0,5.0,88,0.00,,,0.27,WUHU216HW,2013-02-11 21:50:00,
2013-02-11 15:55:00,60.8,57.2,30.00,ENE,76,3.0,5.0,88,0.00,,,0.27,WUHU216HW,2013-02-11 21:55:00,
2013-02-11 16:00:00,60.8,57.2,30.00,NE,45,4.0,6.0,88,0.00,,,0.27,WUHU216HW,2013-02-11 22:00:00,
2013-02-11 16:05:00,60.8,57.2,30.00,SSE,158,7.0,7.0,88,0.00,,,0.27,WUHU216HW,2013-02-11 22:05:00,
2013-02-11 16:10:00,61.0,57.4,30.00,East,90,4.0,8.0,88,0.00,,,0.27,WUHU216HW,2013-02-11 22:10:00,
2013-02-11 16:15:00,60.8,57.2,30.00,ENE,68,5.0,8.0,88,0.00,,,0.27,WUHU216HW,2013-02-11 22:15:00,
2013-02-11 16:20:00,60.8,57.2,30.00,East,93,3.0,5.0,88,0.00,,,0.27,WUHU216HW,2013-02-11 22:20:00,
2013-02-11 16:25:00,60.8,57.2,30.01,ENE,68,2.0,5.0,88,0.00,,,0.27,WUHU216HW,2013-02-11 22:25:00,
2013-02-11 16:30:00,60.8,57.2,30.02,ENE,68,0.0,4.0,88,0.00,,,0.27,WUHU216HW,2013-02-11 22:30:00,
2013-02-11 16:35:00,60.8,57.2,30.02,North,9,3.0,6.0,88,0.00,,,0.27,WUHU216HW,2013-02-11 22:35:00,
2013-02-11 16:40:00,60.7,57.1,30.03,North,0,4.0,8.0,88,0.00,,,0.27,WUHU216HW,2013-02-11 22:40:00,
2013-02-11 16:45:00,60.7,57.4,30.03,North,7,5.0,8.0,89,0.02,,,0.29,WUHU216HW,2013-02-11 22:45:00,
2013-02-11 16:50:00,60.3,57.3,30.03,North,0,3.0,7.0,90,0.03,,,0.30,WUHU216HW,2013-02-11 22:50:00,
2013-02-11 16:55:00,60.1,57.1,30.03,NNE,30,3.0,7.0,90,0.04,,,0.31,WUHU216HW,2013-02-11 22:55:00,
2013-02-11 17:00:00,59.9,57.2,30.03,NE,46,7.0,7.0,91,0.05,,,0.32,WUHU216HW,2013-02-11 23:00:00,
2013-02-11 17:05:00,59.8,57.1,30.03,NE,46,6.0,7.0,91,0.06,,,0.33,WUHU216HW,2013-02-11 23:05:00,
2013-02-11 17:10:00,59.4,57.0,30.03,NNE,25,5.0,11.0,92,0.07,,,0.34,WUHU216HW,2013-02-11 23:10:00,
2013-02-11 17:15:00,59.2,56.8,30.03,NE,45,8.0,11.0,92,0.08,,,0.35,WUHU216HW,2013-02-11 23:15:00,
2013-02-11 17:20:00,59.0,56.9,30.04,NE,45,8.0,9.0,93,0.08,,,0.35,WUHU216HW,2013-02-11 23:20:00,
2013-02-11 17:25:00,59.0,56.9,30.05,NNE,27,5.0,8.0,93,0.09,,,0.36,WUHU216HW,2013-02-11 23:25:00,
2013-02-11 17:30:00,59.0,56.6,30.04,NNE,23,7.0,8.0,92,0.10,,,0.37,WUHU216HW,2013-02-11 23:30:00,
2013-02-11 17:35:00,58.9,56.5,30.03,NNE,23,5.0,9.0,92,0.11,,,0.38,WUHU216HW,2013-02-11 23:35:00,
2013-02-11 17:40:00,58.7,56.3,30.03,NNE,31,6.0,9.0,92,0.11,,,0.39,WUHU216HW,2013-02-11 23:40:00,
2013-02-11 17:45:00,58.7,56.3,30.04,ENE,68,4.0,9.0,92,0.10,,,0.39,WUHU216HW,2013-02-11 23:45:00,
2013-02-11 17:50:00,58.7,56.3,30.04,NE,45,7.0,7.0,92,0.11,,,0.41,WUHU216HW,2013-02-11 23:50:00,
2013-02-11 17:55:00,58.5,56.1,30.03,NE,54,4.0,9.0,92,0.09,,,0.41,WUHU216HW,2013-02-11 23:55:00,
2013-02-11 18:00:00,58.5,56.1,30.03,NE,45,6.0,9.0,92,0.09,,,0.41,WUHU216HW,2013-02-12 00:00:00,
2013-02-11 18:05:00,58.5,56.1,30.03,ENE,59,5.0,7.0,92,0.08,,,0.41,WUHU216HW,2013-02-12 00:05:00,
2013-02-11 18:10:00,58.5,56.1,30.03,NE,45,4.0,7.0,92,0.07,,,0.41,WUHU216HW,2013-02-12 00:10:00,
2013-02-11 18:15:00,58.5,56.1,30.03,East,90,9.0,9.0,92,0.06,,,0.41,WUHU216HW,2013-02-12 00:15:00,
2013-02-11 18:20:00,58.5,56.1,30.03,NNE,23,5.0,9.0,92,0.06,,,0.41,WUHU216HW,2013-02-12 00:20:00,
2013-02-11 18:25:00,58.5,56.1,30.03,NE,36,4.0,6.0,92,0.05,,,0.41,WUHU216HW,2013-02-12 00:25:00,
2013-02-11 18:30:00,58.5,56.1,30.03,NNE,23,5.0,6.0,92,0.03,,,0.41,WUHU216HW,2013-02-12 00:30:00,
2013-02-11 18:35:00,58.7,56.3,30.03,SE,135,5.0,9.0,92,0.02,,,0.41,WUHU216HW,2013-02-12 00:35:00,
2013-02-11 18:40:00,58.7,56.3,30.02,ENE,68,7.0,9.0,92,0.02,,,0.41,WUHU216HW,2013-02-12 00:40:00,
2013-02-11 18:45:00,58.7,56.3,30.02,ENE,68,4.0,7.0,92,0.01,,,0.41,WUHU216HW,2013-02-12 00:45:00,
2013-02-11 18:50:00,58.7,56.3,30.02,East,79,6.0,8.0,92,0.00,,,0.41,WUHU216HW,2013-02-12 00:50:00,
2013-02-11 18:55:00,58.9,56.5,30.02,ENE,77,3.0,9.0,92,0.00,,,0.41,WUHU216HW,2013-02-12 00:55:00,
2013-02-11 19:00:00,58.9,56.5,30.02,North,6,4.0,9.0,92,0.00,,,0.41,WUHU216HW,2013-02-12 01:00:00,
2013-02-11 19:05:00,59.0,56.6,30.02,SSE,158,3.0,5.0,92,0.00,,,0.41,WUHU216HW,2013-02-12 01:05:00,
2013-02-11 19:10:00,59.0,56.9,30.02,ESE,113,5.0,5.0,93,0.00,,,0.41,WUHU216HW,2013-02-12 01:10:00,
2013-02-11 19:15:00,59.0,56.9,30.02,East,90,3.0,5.0,93,0.00,,,0.41,WUHU216HW,2013-02-12 01:15:00,
2013-02-11 19:20:00,59.0,56.6,30.02,ESE,113,2.0,3.0,92,0.00,,,0.41,WUHU216HW,2013-02-12 01:20:00,
2013-02-11 19:25:00,59.0,56.6,30.02,East,89,4.0,4.0,92,0.00,,,0.41,WUHU216HW,2013-02-12 01:25:00,
2013-02-11 19:30:00,59.2,56.8,30.02,East,90,5.0,5.0,92,0.00,,,0.41,WUHU216HW,2013-02-12 01:30:00,
2013-02-11 19:35:00,59.2,56.8,30.04,East,90,2.0,5.0,92,0.01,,,0.42,WUHU216HW,2013-02-12 01:35:00,
2013-02-11 19:40:00,59.2,56.8,30.04,ENE,68,4.0,5.0,92,0.01,,,0.42,WUHU216HW,2013-02-12 01:40:00,
2013-02-11 19:45:00,59.2,56.8,30.03,ENE,78,5.0,5.0,92,0.01,,,0.42,WUHU216HW,2013-02-12 01:45:00,
2013-02-11 19:50:00,59.4,57.0,30.03,ENE,68,4.0,5.0,92,0.01,,,0.42,WUHU216HW,2013-02-12 01:50:00,
2013-02-11 19:55:00,59.4,57.0,30.03,SE,135,1.0,5.0,92,0.01,,,0.42,WUHU216HW,2013-02-12 01:55:00,
2013-02-11 20:00:00,59.4,57.3,30.03,East,90,7.0,7.0,93,0.01,,,0.42,WUHU216HW,2013-02-12 02:00:00,
2013-02-11 20:05:00,59.4,57.3,30.03,NE,45,3.0,7.0,93,0.01,,,0.42,WUHU216HW,2013-02-12 02:05:00,
2013-02-11 20:10:00,59.6,57.5,30.03,SE,132,3.0,5.0,93,0.01,,,0.42,WUHU216HW,2013-02-12 02:10:00,
2013-02-11 20:15:00,59.6,57.5,30.04,NNE,23,1.0,4.0,93,0.01,,,0.42,WUHU216HW,2013-02-12 02:15:00,
2013-02-11 20:20:00,59.8,57.7,30.04,NNE,16,2.0,4.0,93,0.01,,,0.42,WUHU216HW,2013-02-12 02:20:00,
2013-02-11 20:26:00,59.8,57.7,30.03,SSE,152,1.0,3.0,93,0.01,,,0.42,WUHU216HW,2013-02-12 02:26:00,
2013-02-11 20:30:00,59.8,57.7,30.03,ENE,68,1.0,2.0,93,0.00,,,0.42,WUHU216HW,2013-02-12 02:30:00,
2013-02-11 20:36:00,59.8,57.4,30.03,ENE,68,5.0,6.0,92,0.00,,,0.42,WUHU216HW,2013-02-12 02:36:00,
2013-02-11 20:41:00,59.8,57.7,30.04,NE,42,1.0,6.0,93,0.00,,,0.42,WUHU216HW,2013-02-12 02:41:00,
2013-02-11 20:46:00,59.8,57.7,30.03,NE,45,4.0,4.0,93,0.00,,,0.42,WUHU216HW,2013-02-12 02:46:00,
2013-02-11 20:51:00,59.8,57.7,30.03,NNE,23,1.0,6.0,93,0.00,,,0.42,WUHU216HW,2013-02-12 02:51:00,
2013-02-11 20:56:00,59.8,57.7,30.04,ESE,105,4.0,6.0,93,0.00,,,0.42,WUHU216HW,2013-02-12 02:56:00,
2013-02-11 21:01:00,59.8,57.7,30.04,North,6,4.0,6.0,93,0.00,,,0.42,WUHU216HW,2013-02-12 03:01:00,
2013-02-11 21:06:00,59.8,57.7,30.03,ENE,57,3.0,6.0,93,0.00,,,0.42,WUHU216HW,2013-02-12 03:06:00,
2013-02-11 21:11:00,59.8,57.7,30.03,NNE,23,7.0,7.0,93,0.00,,,0.42,WUHU216HW,2013-02-12 03:11:00,
2013-02-11 21:16:00,59.8,57.4,30.03,East,90,7.0,7.0,92,0.00,,,0.42,WUHU216HW,2013-02-12 03:16:00,
2013-02-11 21:21:00,59.8,57.7,30.03,SE,135,5.0,7.0,93,0.00,,,0.42,WUHU216HW,2013-02-12 03:21:00,
2013-02-11 21:26:00,59.8,57.7,30.03,ENE,75,3.0,6.0,93,0.00,,,0.42,WUHU216HW,2013-02-12 03:26:00,
2013-02-11 21:31:00,59.8,57.4,30.03,East,90,7.0,7.0,92,0.00,,,0.42,WUHU216HW,2013-02-12 03:31:00,
2013-02-11 21:36:00,59.8,57.4,30.02,NE,45,5.0,8.0,92,0.00,,,0.42,WUHU216HW,2013-02-12 03:36:00,
2013-02-11 21:41:00,59.8,57.7,30.02,NNE,32,5.0,8.0,93,0.00,,,0.42,WUHU216HW,2013-02-12 03:41:00,
2013-02-11 21:46:00,59.8,57.7,30.03,NE,45,5.0,7.0,93,0.00,,,0.42,WUHU216HW,2013-02-12 03:46:00,
2013-02-11 21:51:00,59.8,57.7,30.02,East,80,6.0,6.0,93,0.00,,,0.42,WUHU216HW,2013-02-12 03:51:00,
2013-02-11 21:56:00,59.6,57.5,30.02,NNE,32,4.0,6.0,93,0.00,,,0.42,WUHU216HW,2013-02-12 03:56:00,
2013-02-11 22:01:00,59.8,57.7,30.02,East,90,4.0,7.0,93,0.00,,,0.42,WUHU216HW,2013-02-12 04:01:00,
2013-02-11 22:06:00,59.8,57.7,30.02,East,81,4.0,7.0,93,0.00,,,0.42,WUHU216HW,2013-02-12 04:06:00,
2013-02-11 22:11:00,59.8,57.7,30.03,East,90,5.0,7.0,93,0.00,,,0.42,WUHU216HW,2013-02-12 04:11:00,
2013-02-11 22:16:00,59.8,57.7,30.02,ENE,68,6.0,8.0,93,0.00,,,0.42,WUHU216HW,2013-02-12 04:16:00,
2013-02-11 22:21:00,59.8,57.7,30.02,ENE,76,4.0,8.0,93,0.00,,,0.42,WUHU216HW,2013-02-12 04:21:00,
2013-02-11 22:26:00,59.6,57.5,30.02,NE,45,7.0,7.0,93,0.00,,,0.42,WUHU216HW,2013-02-12 04:26:00,
2013-02-11 22:31:00,59.6,57.5,30.02,NNE,30,2.0,8.0,93,0.00,,,0.42,WUHU216HW,2013-02-12 04:31:00,
2013-02-11 22:36:00,59.6,57.5,30.01,NE,45,9.0,9.0,93,0.00,,,0.42,WUHU216HW,2013-02-12 04:36:00,
2013-02-11 22:41:00,59.6,57.5,30.02,North,0,7.0,9.0,93,0.00,,,0.42,WUHU216HW,2013-02-12 04:41:00,
2013-02-11 22:46:00,59.4,57.3,30.02,NNE,23,6.0,7.0,93,0.00,,,0.42,WUHU216HW,2013-02-12 04:46:00,
2013-02-11 22:51:00,59.6,57.5,30.02,NE,45,7.0,7.0,93,0.00,,,0.42,WUHU216HW,2013-02-12 04:51:00,
2013-02-11 22:56:00,59.6,57.5,30.01,ENE,78,3.0,7.0,93,0.00,,,0.42,WUHU216HW,2013-02-12 04:56:00,
2013-02-11 23:00:00,59.6,57.5,30.01,NNE,23,4.0,7.0,93,0.00,,,0.42,WUHU216HW,2013-02-12 05:00:00,
2013-02-11 23:05:00,59.6,57.5,30.01,NNW,345,4.0,7.0,93,0.00,,,0.42,WUHU216HW,2013-02-12 05:05:00,
2013-02-11 23:10:00,59.6,57.5,30.01,East,90,3.0,5.0,93,0.00,,,0.42,WUHU216HW,2013-02-12 05:10:00,
2013-02-11 23:15:00,59.6,57.5,30.01,East,82,3.0,5.0,93,0.00,,,0.42,WUHU216HW,2013-02-12 05:15:00,
2013-02-11 23:20:00,59.6,57.5,30.01,NE,45,5.0,7.0,93,0.00,,,0.42,WUHU216HW,2013-02-12 05:20:00,
2013-02-11 23:25:00,59.6,57.5,30.01,East,90,3.0,7.0,93,0.00,,,0.42,WUHU216HW,2013-02-12 05:25:00,
2013-02-11 23:30:00,59.6,57.5,30.00,ESE,113,3.0,7.0,93,0.00,,,0.42,WUHU216HW,2013-02-12 05:30:00,
2013-02-11 23:35:00,59.6,57.5,30.00,ESE,116,4.0,7.0,93,0.00,,,0.42,WUHU216HW,2013-02-12 05:35:00,
2013-02-11 23:40:00,59.6,57.5,30.00,ESE,104,6.0,8.0,93,0.00,,,0.42,WUHU216HW,2013-02-12 05:40:00,
2013-02-11 23:45:00,59.6,57.5,30.00,East,90,6.0,8.0,93,0.00,,,0.42,WUHU216HW,2013-02-12 05:45:00,
2013-02-11 23:50:00,59.6,57.5,30.00,SE,135,5.0,8.0,93,0.00,,,0.42,WUHU216HW,2013-02-12 05:50:00,
2013-02-11 23:56:00,59.6,57.5,30.00,ESE,113,4.0,8.0,93,0.00,,,0.42,WUHU216HW,2013-02-12 05:56:00,